Estación Meteorológica Peña el Pijo (Robertgarden) [ 12/17/17 01:39:15 CET ]

Fecha Hora Presion(HPa) Temp (°C) Humedad % Rocio (°C) Viento ( m/s) Direccion Lluvia 1Hora(mm) Lluvia 24H(mm) LLuvia Total(mm)
2017-Dec-08 01:01:50 1017.000 1.3 55 -6.8         0.00
2017-Dec-08 02:04:08 1016.600 0.7 55 -7.4         0.00
2017-Dec-08 03:01:37 1016.500 0.5 54 -7.8         0.00
2017-Dec-08 04:01:55 1016.900 -0.6 56 -8.3         0.00
2017-Dec-08 05:02:03 1016.800 -0.4 56 -8.1         0.00
2017-Dec-08 06:01:48 1016.600 -0.2 57 -7.7         0.00
2017-Dec-08 07:01:56 1016.100 0.6 54 -7.7         0.00
2017-Dec-08 08:01:38 1016.000 1.4 49 -8.2         0.00
2017-Dec-08 09:01:42 1016.100 1.6 50 -7.7         0.00
2017-Dec-08 10:01:44 1016.200 7.6 46 -3.4         0.00
2017-Dec-08 11:01:57 1015.900 14.3 37 -0.3         0.00
2017-Dec-08 12:01:57 1015.700 15.6 34 -0.3         0.00
2017-Dec-08 13:01:46 1015.100 15.6 35 0.1         0.00
2017-Dec-08 14:01:15 1014.100 15.8 36 0.6         0.00
2017-Dec-08 15:01:56 1013.400 17.3 37 2.4         0.00
2017-Dec-08 16:01:47 1013.900 14.9 42 2.0         0.00
2017-Dec-08 17:01:45 1014.100 13.3 48 2.5 0.9 NNE     0.00
2017-Dec-08 18:02:02 1013.900 10.5 48 -0.1         0.00
2017-Dec-08 19:02:11 1014.200 8.8 50 -1.1         0.00
2017-Dec-08 20:01:47 1014.600 8.4 54 -0.4         0.00
2017-Dec-08 21:01:55 1014.500 9.0 59 1.4         0.00
2017-Dec-08 22:01:48 1014.400 8.6 63 1.9         0.00
2017-Dec-08 23:01:34 1014.000 9.4 64 2.9         0.00

Temperatura Máxima:17°    Temperatura Mínima:
Presión Máxima:1017.000 Hpa    Presión Mínima:1013.400 Hpa


Volver